Time;durP1;ratioP1;P1;durP2;ratioP2;P2;SDS_P1;SDS_P2;PMS_P1;PMS_P2;Temp;Humidity;BMP_temperature;BMP_pressure;BME280_temperature;BME280_humidity;BME280_pressure;Samples;Min_cycle;Max_cycle;Signal;HPM_P1;HPM_P2
2021/12/15 00:02:23;;;;;;;37.28;15.55;;;;;;;1.95;88.72;100012.27;1785550;80;20984;-85
2021/12/15 00:04:53;;;;;;;33.95;13.85;;;;;;;1.95;88.78;100013.94;1775323;80;20996;-83
2021/12/15 00:07:22;;;;;;;36.42;12.68;;;;;;;1.93;88.59;100021.62;1768759;80;20992;-85
2021/12/15 00:09:49;;;;;;;35.80;13.35;;;;;;;1.92;88.47;100027.56;1768329;79;21007;-85
2021/12/15 00:12:17;;;;;;;33.28;12.60;;;;;;;1.94;88.84;100020.77;1783141;79;21048;-83
2021/12/15 00:14:45;;;;;;;36.48;14.63;;;;;;;1.94;88.58;100020.77;1791185;79;20953;-84
2021/12/15 00:17:11;;;;;;;34.13;12.70;;;;;;;1.95;89.03;100022.91;1781831;78;20960;-82
2021/12/15 00:19:38;;;;;;;38.80;13.30;;;;;;;1.99;88.83;100039.72;1775363;80;21044;-84
2021/12/15 00:22:06;;;;;;;31.73;13.68;;;;;;;1.99;89.02;100039.72;1792705;79;21032;-84
2021/12/15 00:24:33;;;;;;;32.73;12.65;;;;;;;2.06;88.91;100042.42;1778206;79;20951;-84
2021/12/15 00:27:00;;;;;;;29.48;12.90;;;;;;;2.13;88.77;100049.42;1803554;79;20995;-85
2021/12/15 00:29:26;;;;;;;35.00;13.95;;;;;;;2.14;88.72;100052.03;1772395;78;21020;-84
2021/12/15 00:31:54;;;;;;;35.78;13.78;;;;;;;2.14;88.79;100049.47;1773070;80;21088;-84
2021/12/15 00:34:21;;;;;;;35.45;14.05;;;;;;;2.17;88.77;100053.83;1762870;79;20989;-83
2021/12/15 00:36:49;;;;;;;35.25;14.60;;;;;;;2.18;88.65;100051.27;1765178;80;21057;-85
2021/12/15 00:39:20;;;;;;;34.13;12.35;;;;;;;2.20;88.78;100059.02;1763021;80;20985;-87
2021/12/15 00:41:48;;;;;;;33.50;13.90;;;;;;;2.20;88.51;100056.45;1689641;83;21019;-85
2021/12/15 00:44:16;;;;;;;39.38;14.05;;;;;;;2.21;88.50;100058.59;1727586;83;21072;-84
2021/12/15 00:46:44;;;;;;;32.93;13.48;;;;;;;2.18;88.19;100064.10;1709279;83;21047;-84
2021/12/15 00:49:11;;;;;;;31.10;13.38;;;;;;;2.13;88.31;100055.45;1705969;82;21557;-85
2021/12/15 00:51:40;;;;;;;32.30;12.25;;;;;;;2.09;88.47;100052.74;1755131;81;21221;-83
2021/12/15 00:54:07;;;;;;;33.73;12.70;;;;;;;2.09;88.85;100051.07;1712493;81;21012;-83
2021/12/15 00:56:34;;;;;;;35.73;13.15;;;;;;;2.08;88.69;100053.59;1767658;81;21343;-83
2021/12/15 00:59:04;;;;;;;32.05;11.15;;;;;;;2.08;88.80;100058.30;1703471;84;21031;-85
2021/12/15 01:01:32;;;;;;;26.25;11.55;;;;;;;2.12;88.73;100053.70;1729811;83;21028;-84
2021/12/15 01:04:00;;;;;;;29.82;12.00;;;;;;;2.13;88.86;100049.03;1721756;83;21067;-84
2021/12/15 01:06:28;;;;;;;29.65;12.35;;;;;;;2.15;88.71;100052.92;1728227;83;21630;-84
2021/12/15 01:09:01;;;;;;;27.05;11.78;;;;;;;2.16;88.85;100051.66;1709825;83;21019;-84
2021/12/15 01:12:04;;;;;;;28.52;11.73;;;;;;;2.17;88.78;100055.97;1726666;83;20983;-84
2021/12/15 01:14:34;;;;;;;33.63;13.43;;;;;;;2.16;88.76;100050.80;1715686;81;21019;-84
2021/12/15 01:19:52;;;;;;;31.00;12.82;;;;;;;2.16;88.87;100058.06;1727339;83;20936;-83
2021/12/15 01:22:30;;;;;;;28.17;12.50;;;;;;;2.17;88.80;100052.55;1734941;80;21018;-83
2021/12/15 01:25:03;;;;;;;28.00;12.33;;;;;;;2.14;88.75;100056.30;1730820;81;21005;-84
2021/12/15 01:27:29;;;;;;;25.30;11.97;;;;;;;2.08;88.58;100051.89;1735407;81;21026;-84
2021/12/15 01:29:56;;;;;;;24.40;10.38;;;;;;;2.05;88.91;100049.66;1724254;81;21058;-85
2021/12/15 01:32:25;;;;;;;25.82;10.78;;;;;;;2.03;88.75;100052.20;1739020;82;20995;-85
2021/12/15 01:34:51;;;;;;;30.85;12.13;;;;;;;2.02;88.59;100055.59;1767404;79;21006;-85
2021/12/15 01:37:18;;;;;;;28.45;10.72;;;;;;;2.00;88.85;100048.27;1805965;79;20931;-83
2021/12/15 01:39:46;;;;;;;27.67;10.98;;;;;;;1.97;88.89;100036.67;1765835;79;20986;-83
2021/12/15 01:42:16;;;;;;;26.12;10.63;;;;;;;1.97;88.86;100036.67;1756212;80;20987;-84
2021/12/15 01:47:27;;;;;;;30.95;11.68;;;;;;;1.96;89.10;100040.05;1764223;81;21036;-83
2021/12/15 01:49:57;;;;;;;26.75;11.18;;;;;;;1.94;89.27;100045.55;1771164;80;21012;-84
2021/12/15 01:52:28;;;;;;;28.20;10.70;;;;;;;1.94;89.37;100048.13;1759381;80;21116;-84
2021/12/15 01:55:02;;;;;;;25.37;10.75;;;;;;;1.91;89.56;100049.31;1777884;79;20971;-82
2021/12/15 01:57:33;;;;;;;25.88;11.88;;;;;;;1.93;89.44;100037.00;1770104;79;21167;-83
2021/12/15 02:00:04;;;;;;;30.50;12.65;;;;;;;1.95;89.44;100035.34;1748022;80;21012;-83
2021/12/15 02:02:33;;;;;;;30.75;12.55;;;;;;;1.92;89.32;100036.53;1782244;79;21024;-84
2021/12/15 02:05:01;;;;;;;31.43;12.77;;;;;;;1.91;89.40;100040.34;1785495;79;20989;-84
2021/12/15 02:07:31;;;;;;;27.58;12.70;;;;;;;1.88;88.94;100028.31;1746718;80;20984;-86
2021/12/15 02:12:32;;;;;;;30.02;11.68;;;;;;;1.84;89.12;100029.07;1763276;79;20951;-84
2021/12/15 02:14:58;;;;;;;;;;;;;;;1.83;88.95;100034.16;1767570;80;21011;-83
2021/12/15 02:17:27;;;;;;;35.68;11.75;;;;;;;1.82;88.44;100039.70;1762705;79;20116;-83
2021/12/15 02:19:54;;;;;;;30.82;10.58;;;;;;;1.77;89.39;100034.47;1785898;79;20948;-84
2021/12/15 02:22:21;;;;;;;28.42;11.05;;;;;;;1.79;89.05;100033.20;1768683;79;21016;-85
2021/12/15 02:24:51;;;;;;;27.20;11.53;;;;;;;1.80;89.58;100036.23;1768371;79;21540;-84
2021/12/15 02:27:17;;;;;;;29.25;11.80;;;;;;;1.82;89.48;100047.39;1782724;79;20976;-83
2021/12/15 02:29:50;;;;;;;27.93;10.55;;;;;;;1.84;89.81;100049.58;1764343;79;21024;-84
2021/12/15 02:32:34;;;;;;;29.32;11.78;;;;;;;1.86;89.77;100051.77;1772998;79;20996;-84
2021/12/15 02:37:14;;;;;;;25.68;10.32;;;;;;;1.90;89.79;100051.44;1790819;79;21050;-84
2021/12/15 02:37:26;;;;;;;29.20;12.00;;;;;;;1.94;89.68;100059.66;1783570;79;21027;-86
2021/12/15 02:39:58;;;;;;;26.90;11.48;;;;;;;1.92;89.74;100042.09;1793325;79;20963;-85
2021/12/15 02:42:30;;;;;;;29.32;12.18;;;;;;;1.95;89.80;100043.42;1788390;79;21000;-85
2021/12/15 02:44:57;;;;;;;32.17;13.70;;;;;;;1.98;89.57;100049.93;1811444;79;21015;-84
2021/12/15 02:47:28;;;;;;;33.28;13.20;;;;;;;1.99;89.56;100054.25;1782932;79;20955;-83
2021/12/15 02:49:58;;;;;;;30.00;12.35;;;;;;;2.01;89.48;100058.11;1787487;80;21067;-84
2021/12/15 02:52:25;;;;;;;34.03;12.53;;;;;;;2.02;89.38;100067.55;1784473;80;21061;-83
2021/12/15 02:54:52;;;;;;;31.05;13.43;;;;;;;2.02;89.00;100060.72;1761868;79;21505;-84
2021/12/15 02:57:20;;;;;;;27.87;11.05;;;;;;;2.00;89.32;100062.38;1772761;80;20997;-85
2021/12/15 03:00:00;;;;;;;32.23;10.80;;;;;;;2.01;88.79;100067.98;1763384;79;21103;-84
2021/12/15 03:05:14;;;;;;;31.20;11.67;;;;;;;2.01;89.28;100070.54;1753663;80;20979;-85
2021/12/15 03:07:59;;;;;;;31.50;10.85;;;;;;;2.04;89.33;100073.59;1785251;80;21026;-85
2021/12/15 03:15:53;;;;;;;33.58;11.33;;;;;;;2.11;89.40;100055.83;1776822;80;21019;-85
2021/12/15 03:18:25;;;;;;;33.90;12.78;;;;;;;2.14;89.35;100049.89;1779350;79;21013;-85
2021/12/15 03:21:08;;;;;;;32.45;13.35;;;;;;;2.14;89.56;100042.20;1763947;80;20983;-85
2021/12/15 03:23:50;;;;;;;31.65;12.33;;;;;;;2.19;89.39;100037.63;1763393;80;20970;-85
2021/12/15 03:26:24;;;;;;;30.32;13.43;;;;;;;2.21;89.28;100035.50;1769718;80;21437;-84
2021/12/15 03:34:40;;;;;;;34.25;13.70;;;;;;;2.19;88.73;100035.48;1793889;79;20991;-83
2021/12/15 03:39:28;;;;;;;30.48;11.80;;;;;;;2.09;88.84;100036.07;1734397;79;21269;-85
2021/12/15 03:42:01;;;;;;;37.38;13.18;;;;;;;2.03;88.70;100038.49;1744844;81;21040;-85
2021/12/15 03:44:28;;;;;;;39.08;13.30;;;;;;;2.01;88.83;100035.91;1734895;79;21084;-84
2021/12/15 03:46:58;;;;;;;34.08;12.10;;;;;;;2.02;88.67;100040.63;1728692;81;21153;-85
2021/12/15 03:49:25;;;;;;;33.33;11.30;;;;;;;1.99;89.19;100035.87;1750560;81;21048;-85
2021/12/15 03:51:52;;;;;;;35.28;13.48;;;;;;;1.97;89.13;100034.97;1689295;84;21062;-85
2021/12/15 03:54:19;;;;;;;40.43;13.13;;;;;;;1.98;89.28;100026.84;1733878;81;21132;-85
2021/12/15 03:56:47;;;;;;;34.40;12.13;;;;;;;1.99;89.39;100024.33;1733797;81;21033;-84
2021/12/15 03:59:14;;;;;;;39.08;12.05;;;;;;;1.97;89.40;100031.12;1749862;81;20986;-84
2021/12/15 04:01:41;;;;;;;32.45;11.75;;;;;;;1.97;89.76;100043.94;1707918;81;21020;-85
2021/12/15 04:04:09;;;;;;;32.60;11.73;;;;;;;2.01;89.38;100051.69;1753568;81;21019;-85
2021/12/15 04:06:39;;;;;;;40.33;12.85;;;;;;;2.01;89.47;100054.26;1739994;81;20965;-85
2021/12/15 04:09:10;;;;;;;32.35;13.08;;;;;;;2.02;89.45;100050.45;1741912;82;21030;-85
2021/12/15 04:11:37;;;;;;;36.10;12.70;;;;;;;2.00;89.42;100050.83;1728003;82;21054;-84
2021/12/15 04:14:18;;;;;;;35.80;13.40;;;;;;;2.04;89.34;100054.34;1723107;82;20984;-85
2021/12/15 04:16:45;;;;;;;36.30;14.25;;;;;;;2.03;89.22;100051.31;1741943;81;20995;-83
2021/12/15 04:19:17;;;;;;;30.97;12.30;;;;;;;2.06;89.05;100061.24;1741300;81;21012;-85
2021/12/15 04:21:44;;;;;;;29.67;12.10;;;;;;;2.04;88.70;100057.77;1742553;81;21031;-85
2021/12/15 04:24:14;;;;;;;33.38;12.45;;;;;;;2.00;88.95;100052.11;1745333;81;21254;-84
2021/12/15 04:26:42;;;;;;;34.88;12.47;;;;;;;1.99;88.88;100050.40;1764953;81;21100;-84
2021/12/15 04:29:09;;;;;;;32.48;12.60;;;;;;;1.99;89.00;100045.27;1738416;81;21019;-85
2021/12/15 04:31:40;;;;;;;35.65;12.07;;;;;;;1.98;88.94;100036.69;1743228;81;21015;-84
2021/12/15 04:34:10;;;;;;;32.80;12.20;;;;;;;2.02;88.73;100041.91;1742463;82;21012;-85
2021/12/15 04:36:42;;;;;;;34.65;11.73;;;;;;;2.04;88.93;100042.80;1743197;82;20965;-84
2021/12/15 04:39:12;;;;;;;32.30;12.37;;;;;;;2.04;88.89;100034.69;1741736;81;21416;-85
2021/12/15 04:41:44;;;;;;;33.25;11.83;;;;;;;2.07;88.92;100037.73;1774095;81;21034;-85
2021/12/15 04:44:10;;;;;;;34.08;11.93;;;;;;;2.08;88.85;100044.61;1751609;81;21000;-85
2021/12/15 04:46:42;;;;;;;26.12;11.18;;;;;;;2.09;88.82;100042.48;1740241;82;21494;-85
2021/12/15 04:49:13;;;;;;;33.40;14.23;;;;;;;2.13;88.80;100038.77;1735428;82;21009;-83
2021/12/15 04:51:39;;;;;;;40.83;15.85;;;;;;;2.15;88.81;100040.95;1753046;81;21026;-83
2021/12/15 04:54:07;;;;;;;40.63;14.15;;;;;;;2.20;88.83;100039.77;1725927;81;20974;-83
2021/12/15 04:56:34;;;;;;;34.45;13.10;;;;;;;2.23;88.71;100033.84;1724248;81;20999;-83
2021/12/15 04:59:00;;;;;;;33.05;13.43;;;;;;;2.18;88.23;100033.31;1728920;81;21022;-85
2021/12/15 05:01:27;;;;;;;31.80;12.43;;;;;;;2.17;88.21;100043.14;1731252;83;20999;-85
2021/12/15 05:03:55;;;;;;;35.45;12.20;;;;;;;2.15;88.17;100040.95;1740623;81;21004;-84
2021/12/15 05:06:22;;;;;;;31.45;12.45;;;;;;;2.12;88.21;100042.15;1710503;82;21031;-84
2021/12/15 05:08:50;;;;;;;31.95;11.97;;;;;;;2.10;88.06;100040.39;1712356;83;21199;-84
2021/12/15 05:11:17;;;;;;;31.85;12.00;;;;;;;2.12;87.96;100045.14;1704554;82;21021;-85
2021/12/15 05:13:45;;;;;;;28.70;11.45;;;;;;;2.08;88.22;100051.89;1702290;84;21006;-85
2021/12/15 05:16:12;;;;;;;28.98;11.20;;;;;;;2.10;88.20;100050.22;1688453;84;20989;-84
2021/12/15 05:18:39;;;;;;;35.58;12.50;;;;;;;2.10;88.39;100055.36;1699540;84;21650;-85
2021/12/15 05:21:08;;;;;;;31.35;12.23;;;;;;;2.12;88.41;100056.26;1701394;83;20994;-84
2021/12/15 05:23:34;;;;;;;32.03;12.37;;;;;;;2.13;88.51;100064.81;1702628;84;21007;-85
2021/12/15 05:26:01;;;;;;;32.90;12.28;;;;;;;2.15;88.49;100071.74;1696356;84;21221;-84
2021/12/15 05:28:28;;;;;;;27.32;11.25;;;;;;;2.18;88.50;100068.38;1707228;83;21051;-85
2021/12/15 05:30:56;;;;;;;26.93;11.05;;;;;;;2.18;88.46;100076.93;1698653;83;21045;-84
2021/12/15 05:33:24;;;;;;;27.27;10.98;;;;;;;2.18;88.55;100087.19;1701371;84;21502;-83
2021/12/15 05:35:53;;;;;;;25.88;11.33;;;;;;;2.19;88.59;100082.53;1698036;84;21017;-85
2021/12/15 05:38:21;;;;;;;28.60;12.75;;;;;;;2.21;88.59;100076.55;1688866;83;21005;-84
2021/12/15 05:40:48;;;;;;;29.77;12.37;;;;;;;2.23;88.56;100073.61;1706316;84;21003;-82
2021/12/15 05:43:15;;;;;;;31.12;13.03;;;;;;;2.21;88.51;100074.87;1701269;84;21029;-83
2021/12/15 05:45:43;;;;;;;34.35;14.07;;;;;;;2.21;88.59;100072.70;1727397;81;20989;-83
2021/12/15 05:48:13;;;;;;;33.60;13.90;;;;;;;2.21;88.49;100073.59;1741767;81;21001;-80
2021/12/15 05:50:43;;;;;;;35.92;14.50;;;;;;;2.18;88.36;100075.65;1748948;81;21021;-81
2021/12/15 05:53:12;;;;;;;33.42;11.28;;;;;;;2.16;88.56;100085.00;1731515;81;21116;-81
2021/12/15 05:55:41;;;;;;;30.32;11.85;;;;;;;2.16;88.30;100086.28;1746053;81;21038;-81
2021/12/15 05:58:09;;;;;;;29.82;12.65;;;;;;;2.14;88.55;100081.95;1733071;81;21071;-83
2021/12/15 06:00:43;;;;;;;29.92;11.57;;;;;;;2.12;88.61;100081.91;1746149;81;21113;-82
2021/12/15 06:03:09;;;;;;;31.25;12.35;;;;;;;2.10;88.64;100072.45;1730049;81;21083;-82
2021/12/15 06:05:37;;;;;;;30.95;11.45;;;;;;;2.12;88.83;100078.06;1744319;81;21028;-82
2021/12/15 06:08:05;;;;;;;33.20;11.57;;;;;;;2.15;88.81;100075.59;1737672;81;20976;-84
2021/12/15 06:10:35;;;;;;;37.88;13.20;;;;;;;2.16;88.72;100077.73;1755620;81;20976;-85
2021/12/15 06:13:05;;;;;;;28.62;12.47;;;;;;;2.14;88.79;100086.66;1728577;83;20977;-83
2021/12/15 06:15:31;;;;;;;36.03;12.25;;;;;;;2.18;88.81;100091.47;1715311;82;21047;-84
2021/12/15 06:18:12;;;;;;;35.03;12.68;;;;;;;2.22;88.77;100097.13;1768818;79;20992;-83
2021/12/15 06:20:42;;;;;;;33.40;12.87;;;;;;;2.25;88.75;100104.02;1767185;80;21536;-85
2021/12/15 06:23:16;;;;;;;37.55;12.53;;;;;;;2.26;88.73;100099.35;1791053;79;21135;-84
2021/12/15 06:25:40;;;;;;;35.03;13.25;;;;;;;2.28;88.75;100100.26;1762797;79;21041;-84
2021/12/15 06:28:07;;;;;;;33.55;13.28;;;;;;;2.26;88.67;100096.79;1774083;79;20997;-83
2021/12/15 06:30:35;;;;;;;39.78;13.65;;;;;;;2.26;88.72;100109.62;1759199;79;21052;-83
2021/12/15 06:33:03;;;;;;;33.13;13.70;;;;;;;2.23;88.71;100108.24;1773838;81;21018;-84
2021/12/15 06:35:32;;;;;;;41.45;14.03;;;;;;;2.21;88.69;100112.47;1766935;79;21122;-84
2021/12/15 06:37:59;;;;;;;37.17;14.05;;;;;;;2.21;88.19;100111.19;1768812;80;20994;-84
2021/12/15 06:40:26;;;;;;;33.65;12.70;;;;;;;2.19;88.35;100111.17;1756920;80;21038;-83
2021/12/15 06:42:53;;;;;;;34.30;12.25;;;;;;;2.15;88.42;100110.64;1765980;80;21036;-85
2021/12/15 06:45:24;;;;;;;35.78;11.03;;;;;;;2.13;88.23;100120.86;1762805;79;21013;-83
2021/12/15 06:58:39;;;;;;;37.70;13.10;;;;;;;2.22;88.71;100134.75;1768189;79;21021;-83
2021/12/15 07:01:09;;;;;;;30.12;11.33;;;;;;;2.27;88.61;100137.00;1769470;81;21045;-83
2021/12/15 07:03:36;;;;;;;29.90;11.63;;;;;;;2.30;88.70;100146.07;1769740;79;20974;-83
2021/12/15 07:06:03;;;;;;;38.35;11.85;;;;;;;2.31;88.48;100143.97;1765672;79;21054;-84
2021/12/15 07:08:33;;;;;;;33.65;12.00;;;;;;;2.31;88.40;100144.83;1760099;79;21009;-86
2021/12/15 07:11:01;;;;;;;42.03;13.80;;;;;;;2.39;88.59;100144.60;1767989;79;21041;-84
2021/12/15 07:13:30;;;;;;;35.38;12.45;;;;;;;2.43;88.42;100153.25;1768457;79;21157;-84
2021/12/15 07:16:00;;;;;;;33.38;13.45;;;;;;;2.40;88.04;100144.18;1765593;79;21100;-83
2021/12/15 07:18:40;;;;;;;35.13;13.45;;;;;;;2.45;88.27;100140.43;1757621;79;20970;-90
2021/12/15 07:21:05;;;;;;;37.78;12.98;;;;;;;2.46;87.94;100148.60;1751507;79;21068;-89
2021/12/15 07:23:28;;;;;;;38.42;14.03;;;;;;;2.46;87.71;100155.02;1743262;78;21155;-86
2021/12/15 07:25:55;;;;;;;30.40;12.10;;;;;;;2.43;87.88;100149.80;1737688;79;21007;-89
2021/12/15 07:28:24;;;;;;;38.80;12.70;;;;;;;2.44;87.62;100144.70;1777586;79;21167;-87
2021/12/15 07:30:52;;;;;;;31.10;11.68;;;;;;;2.44;87.69;100156.25;1751446;80;21289;-87
2021/12/15 07:33:19;;;;;;;43.42;11.95;;;;;;;2.44;87.71;100147.27;1768762;79;20983;-84
2021/12/15 07:35:49;;;;;;;35.70;12.35;;;;;;;2.47;87.70;100148.64;1760885;80;21585;-83
2021/12/15 07:38:17;;;;;;;36.20;12.30;;;;;;;2.50;87.72;100137.58;1761220;79;21117;-84
2021/12/15 07:40:45;;;;;;;32.67;13.60;;;;;;;2.54;87.73;100138.95;1704554;77;21106;-85
2021/12/15 07:43:23;;;;;;;42.25;12.45;;;;;;;2.53;87.88;100151.36;1693812;83;21067;-84
2021/12/15 07:45:50;;;;;;;37.23;12.63;;;;;;;2.62;88.00;100156.26;1695525;82;21155;-83
2021/12/15 07:48:23;;;;;;;41.75;12.20;;;;;;;2.62;87.74;100166.10;1693542;83;21149;-81
2021/12/15 07:50:54;;;;;;;30.48;11.63;;;;;;;2.62;87.78;100167.39;1687899;83;21039;-86
2021/12/15 07:53:21;;;;;;;35.00;12.45;;;;;;;2.66;87.68;100161.92;1697626;83;21070;-83
2021/12/15 07:55:49;;;;;;;26.87;12.00;;;;;;;2.75;88.03;100163.43;1676564;85;21037;-82
2021/12/15 07:58:18;;;;;;;35.60;13.83;;;;;;;2.81;87.90;100169.13;1669902;84;20969;-82
2021/12/15 08:00:47;;;;;;;37.88;13.50;;;;;;;2.82;87.39;100161.86;1692146;82;20985;-82
2021/12/15 08:03:14;;;;;;;31.35;12.63;;;;;;;2.88;87.38;100167.14;1661849;84;21187;-82
2021/12/15 08:05:44;;;;;;;31.25;12.68;;;;;;;2.88;87.07;100173.14;1691174;82;20944;-84
2021/12/15 08:08:10;;;;;;;34.33;13.20;;;;;;;2.89;86.54;100174.89;1693038;83;21708;-80
2021/12/15 08:10:41;;;;;;;34.55;13.08;;;;;;;2.90;86.76;100172.75;1698555;84;21281;-81
2021/12/15 08:13:09;;;;;;;35.43;12.88;;;;;;;2.94;86.84;100180.13;1692531;83;21029;-82
2021/12/15 08:15:36;;;;;;;38.08;13.68;;;;;;;2.90;86.01;100184.31;1702442;83;20967;-82
2021/12/15 08:18:03;;;;;;;29.35;12.07;;;;;;;2.88;85.87;100185.98;1692608;83;21033;-83
2021/12/15 08:20:32;;;;;;;32.67;11.12;;;;;;;2.85;85.96;100188.92;1664222;85;21024;-83
2021/12/15 08:23:04;;;;;;;24.02;10.63;;;;;;;2.90;86.20;100186.88;1692281;84;21038;-83
2021/12/15 08:25:31;;;;;;;33.25;11.40;;;;;;;2.93;86.23;100192.11;1670538;84;20982;-82
2021/12/15 08:27:59;;;;;;;32.42;11.25;;;;;;;2.96;86.21;100193.87;1707994;83;21282;-83
2021/12/15 08:30:29;;;;;;;28.42;11.68;;;;;;;3.02;86.65;100194.44;1705376;83;21030;-82
2021/12/15 08:33:00;;;;;;;28.98;11.70;;;;;;;3.03;86.37;100193.19;1692944;83;21044;-82
2021/12/15 08:35:31;;;;;;;31.10;11.93;;;;;;;3.04;86.50;100194.05;1663295;85;21052;-81
2021/12/15 08:37:58;;;;;;;30.72;10.58;;;;;;;3.10;86.38;100188.63;1700808;83;21519;-82
2021/12/15 08:40:27;;;;;;;30.30;10.80;;;;;;;3.15;86.41;100190.03;1703475;83;21089;-81
2021/12/15 08:42:55;;;;;;;27.80;10.60;;;;;;;3.12;85.93;100190.84;1727140;82;21190;-81
2021/12/15 08:45:23;;;;;;;31.23;12.05;;;;;;;3.19;86.36;100191.84;1728038;81;21020;-84
2021/12/15 08:47:51;;;;;;;29.60;12.07;;;;;;;3.18;86.24;100193.55;1733916;81;21067;-86
2021/12/15 08:50:23;;;;;;;34.58;12.25;;;;;;;3.22;85.82;100196.17;1723036;81;20995;-81
2021/12/15 08:52:51;;;;;;;35.48;13.78;;;;;;;3.28;86.27;100190.77;1727999;81;21004;-82
2021/12/15 08:55:18;;;;;;;31.87;12.35;;;;;;;3.30;86.38;100191.66;1716795;82;21029;-81
2021/12/15 08:57:49;;;;;;;30.68;13.28;;;;;;;3.37;85.72;100193.52;1706203;82;21087;-80
2021/12/15 09:00:21;;;;;;;46.63;16.95;;;;;;;3.42;85.77;100197.45;1719134;82;20955;-81
2021/12/15 09:02:48;;;;;;;34.33;18.30;;;;;;;3.50;85.55;100196.34;1717253;81;21012;-84
2021/12/15 09:05:20;;;;;;;34.13;14.38;;;;;;;;;;1726857;81;20980;-83
2021/12/15 09:07:44;;;;;;;27.93;12.37;;;;;;;3.56;84.99;100187.07;1721652;82;21033;-85
2021/12/15 09:10:11;;;;;;;25.23;11.78;;;;;;;3.54;84.61;100190.42;1731625;82;21011;-84
2021/12/15 09:12:38;;;;;;;23.52;10.15;;;;;;;3.57;84.43;100193.94;1711191;82;21057;-82
2021/12/15 09:15:07;;;;;;;29.65;11.00;;;;;;;3.60;84.27;100195.69;1717015;83;20969;-89
2021/12/15 09:17:34;;;;;;;25.02;11.28;;;;;;;3.66;84.67;100200.99;1704918;84;21059;-81
2021/12/15 09:20:03;;;;;;;24.12;10.65;;;;;;;3.71;84.18;100193.36;1710584;82;21043;-81
2021/12/15 09:22:30;;;;;;;36.25;13.60;;;;;;;3.77;85.04;100196.05;1708834;81;22335;-84
2021/12/15 09:24:58;;;;;;;28.80;11.97;;;;;;;3.79;84.71;100197.81;1692104;80;21156;-83
2021/12/15 09:27:25;;;;;;;29.98;11.55;;;;;;;3.83;83.64;100197.88;1739944;82;21048;-88
2021/12/15 09:29:51;;;;;;;36.15;11.45;;;;;;;3.91;83.64;100191.18;1750662;80;21019;-87
2021/12/15 09:32:19;;;;;;;36.17;13.75;;;;;;;4.00;84.78;100200.38;1738811;81;21072;-87
2021/12/15 09:34:46;;;;;;;41.90;13.35;;;;;;;3.98;82.94;100197.77;1737270;81;20976;-83
2021/12/15 09:37:12;;;;;;;29.92;12.75;;;;;;;4.01;83.06;100196.95;1724276;81;21110;-81
2021/12/15 09:39:39;;;;;;;30.85;13.75;;;;;;;3.99;82.77;100194.34;1734283;81;21035;-80
2021/12/15 09:42:06;;;;;;;31.30;12.23;;;;;;;3.99;82.70;100195.63;1736693;81;21000;-81
2021/12/15 09:44:33;;;;;;;30.62;13.13;;;;;;;3.99;83.00;100192.19;1739642;82;21159;-80
2021/12/15 09:47:13;;;;;;;35.50;12.88;;;;;;;4.00;83.01;100199.09;1733020;81;21059;-80
2021/12/15 10:06:19;;;;;;;35.70;13.60;;;;;;;3.99;82.63;100176.75;1731448;81;20987;-82
2021/12/15 10:11:43;;;;;;;29.98;12.10;;;;;;;3.98;82.34;100190.47;1697900;82;21051;-82
2021/12/15 10:19:41;;;;;;;29.87;11.15;;;;;;;4.00;82.56;100177.22;1718284;82;21025;-82
2021/12/15 10:25:32;;;;;;;27.75;12.40;;;;;;;4.09;82.88;100181.66;1701913;81;21091;-85
2021/12/15 10:28:10;;;;;;;38.45;13.08;;;;;;;4.07;82.69;100168.75;1717507;83;21075;-83
2021/12/15 10:30:50;;;;;;;27.85;11.40;;;;;;;4.07;82.80;100164.89;1670023;83;21102;-85
2021/12/15 10:33:28;;;;;;;38.53;12.07;;;;;;;4.11;83.07;100164.53;1702488;83;21115;-83
2021/12/15 10:36:06;;;;;;;29.55;12.45;;;;;;;4.14;82.38;100168.47;1705488;83;21011;-84
2021/12/15 10:38:46;;;;;;;35.43;12.68;;;;;;;4.17;82.44;100165.93;1702937;83;21170;-78
2021/12/15 10:41:31;;;;;;;27.02;12.68;;;;;;;4.22;83.02;100160.85;1699699;83;21674;-78
2021/12/15 10:44:03;;;;;;;36.98;13.05;;;;;;;4.18;81.88;100161.25;1683942;83;21613;-79
2021/12/15 10:46:41;;;;;;;31.50;12.25;;;;;;;4.21;82.50;100158.70;1705790;83;21016;-83
2021/12/15 10:49:17;;;;;;;33.92;12.58;;;;;;;4.22;82.13;100155.70;1689286;83;21062;-85
2021/12/15 10:52:10;;;;;;;26.82;12.03;;;;;;;4.24;81.83;100157.88;1701169;83;21075;-85
2021/12/15 10:54:49;;;;;;;28.55;12.65;;;;;;;4.27;82.06;100157.95;1705775;82;21048;-84
2021/12/15 10:57:19;;;;;;;33.13;12.55;;;;;;;4.23;80.82;100158.74;1714888;81;21093;-85
2021/12/15 10:59:50;;;;;;;31.50;13.48;;;;;;;4.24;81.51;100150.16;1711452;82;21032;-84
2021/12/15 11:02:30;;;;;;;36.40;15.23;;;;;;;4.25;81.26;100145.48;1706197;83;21116;-84
2021/12/15 11:05:17;;;;;;;29.50;10.93;;;;;;;4.24;81.14;100151.45;1704324;83;21123;-84
2021/12/15 11:07:57;;;;;;;30.80;11.80;;;;;;;4.19;80.48;100147.09;1700873;82;20999;-84
2021/12/15 11:10:34;;;;;;;33.60;11.95;;;;;;;4.23;81.41;100152.30;1700107;83;21087;-85
2021/12/15 11:13:13;;;;;;;28.83;11.85;;;;;;;4.26;81.28;100141.65;1704695;84;21018;-83
2021/12/15 11:15:47;;;;;;;28.75;10.75;;;;;;;4.26;81.57;100150.66;1700214;83;21534;-84
2021/12/15 11:18:28;;;;;;;29.10;12.40;;;;;;;4.26;81.12;100145.52;1703931;82;20980;-84
2021/12/15 11:21:03;;;;;;;21.57;9.53;;;;;;;4.26;81.25;100142.94;1708220;84;21004;-84
2021/12/15 11:23:32;;;;;;;19.90;9.40;;;;;;;4.32;81.39;100149.91;1715488;82;21025;-85
2021/12/15 11:26:07;;;;;;;23.62;10.88;;;;;;;4.32;80.49;100141.75;1749591;82;21003;-81
2021/12/15 11:28:40;;;;;;;23.62;10.50;;;;;;;4.33;80.25;100147.75;1729178;82;21022;-82
2021/12/15 11:31:21;;;;;;;23.27;10.28;;;;;;;4.33;80.46;100141.32;1746317;81;21047;-85
2021/12/15 11:33:56;;;;;;;24.80;11.18;;;;;;;4.31;79.32;100148.16;1746208;81;20999;-83
2021/12/15 11:36:32;;;;;;;23.05;10.63;;;;;;;4.30;79.64;100146.00;1748106;82;20920;-84
2021/12/15 11:39:06;;;;;;;23.92;10.65;;;;;;;4.30;80.17;100143.86;1727326;82;21000;-85
2021/12/15 11:41:42;;;;;;;29.35;11.63;;;;;;;4.27;78.79;100144.66;1748237;82;21103;-82
2021/12/15 11:44:19;;;;;;;26.55;10.08;;;;;;;4.22;78.67;100145.41;1728873;82;20945;-82
2021/12/15 11:46:52;;;;;;;35.45;10.20;;;;;;;4.22;78.38;100148.87;1712466;83;21030;-83
2021/12/15 11:49:29;;;;;;;23.77;9.25;;;;;;;4.18;79.51;100147.09;1734986;80;21019;-85
2021/12/15 11:52:04;;;;;;;24.32;9.25;;;;;;;4.18;79.68;100145.37;1741494;80;21137;-86
2021/12/15 11:54:39;;;;;;;25.75;9.90;;;;;;;4.24;78.73;100151.45;1767783;77;20959;-83
2021/12/15 11:57:22;;;;;;;23.92;9.78;;;;;;;4.25;79.00;100151.91;1776837;79;21126;-88
2021/12/15 11:59:55;;;;;;;25.57;9.93;;;;;;;4.30;79.97;100146.44;1780480;78;21045;-81
2021/12/15 12:02:32;;;;;;;34.58;14.20;;;;;;;4.34;80.18;100150.36;1708322;81;21015;-80
2021/12/15 12:05:15;;;;;;;26.37;11.80;;;;;;;4.38;80.04;100150.86;1781599;78;21005;-82
2021/12/15 12:08:06;;;;;;;26.90;12.00;;;;;;;4.35;79.56;100145.65;1750837;80;21082;-83
2021/12/15 12:10:49;;;;;;;26.87;10.85;;;;;;;4.36;78.43;100145.25;1726615;81;20997;-85
2021/12/15 12:13:24;;;;;;;32.23;10.82;;;;;;;4.42;78.87;100149.61;1734829;81;21024;-83
2021/12/15 12:15:56;;;;;;;28.32;11.22;;;;;;;4.43;78.87;100142.34;1718236;82;20967;-84
2021/12/15 12:18:30;;;;;;;30.43;11.35;;;;;;;4.46;79.05;100147.12;1725354;82;20993;-84
2021/12/15 12:21:01;;;;;;;26.52;11.53;;;;;;;4.48;78.51;100141.58;1724750;81;21005;-85
2021/12/15 12:23:31;;;;;;;30.32;12.43;;;;;;;4.45;78.47;100138.94;1716547;83;21099;-83
2021/12/15 12:26:05;;;;;;;28.85;11.73;;;;;;;4.44;78.19;100139.80;1732982;81;20980;-84
2021/12/15 12:28:38;;;;;;;26.95;11.28;;;;;;;4.45;77.60;100147.95;1723609;82;21062;-84
2021/12/15 12:31:10;;;;;;;25.05;11.60;;;;;;;4.48;78.48;100142.02;1683087;83;20990;-82
2021/12/15 12:33:39;;;;;;;27.42;9.68;;;;;;;4.46;78.16;100136.83;1720444;82;21028;-82
2021/12/15 12:36:11;;;;;;;25.10;10.55;;;;;;;4.47;78.03;100138.98;1779271;80;21092;-84
2021/12/15 12:38:50;;;;;;;26.23;10.90;;;;;;;4.45;78.37;100147.09;1779991;78;21108;-85